sensor_id;sensor_type;location;lat;lon;timestamp;P1;durP1;ratioP1;P2;durP2;ratioP2
72590;SDS011;60625;51.212;5.952;2022-10-16T00:02:58;5.80;;;1.60;;
72590;SDS011;60625;51.212;5.952;2022-10-16T00:07:59;6.60;;;1.70;;
72590;SDS011;60625;51.212;5.952;2022-10-16T00:12:59;4.90;;;1.30;;
72590;SDS011;60625;51.212;5.952;2022-10-16T00:18:00;3.40;;;1.20;;
72590;SDS011;60625;51.212;5.952;2022-10-16T00:23:00;3.60;;;1.20;;
72590;SDS011;60625;51.212;5.952;2022-10-16T00:28:01;4.30;;;1.00;;
72590;SDS011;60625;51.212;5.952;2022-10-16T00:33:02;4.10;;;1.20;;
72590;SDS011;60625;51.212;5.952;2022-10-16T00:38:02;3.00;;;0.90;;
72590;SDS011;60625;51.212;5.952;2022-10-16T00:43:04;3.60;;;1.20;;
72590;SDS011;60625;51.212;5.952;2022-10-16T00:48:12;4.50;;;1.50;;
72590;SDS011;60625;51.212;5.952;2022-10-16T00:53:14;6.60;;;1.40;;
72590;SDS011;60625;51.212;5.952;2022-10-16T00:58:16;6.80;;;1.60;;
72590;SDS011;60625;51.212;5.952;2022-10-16T01:03:27;6.40;;;1.60;;
72590;SDS011;60625;51.212;5.952;2022-10-16T01:14:05;5.20;;;1.60;;
72590;SDS011;60625;51.212;5.952;2022-10-16T01:19:17;5.70;;;1.60;;
72590;SDS011;60625;51.212;5.952;2022-10-16T01:24:41;6.00;;;1.30;;
72590;SDS011;60625;51.212;5.952;2022-10-16T01:40:34;5.10;;;1.50;;
72590;SDS011;60625;51.212;5.952;2022-10-16T01:45:36;5.30;;;1.80;;
72590;SDS011;60625;51.212;5.952;2022-10-16T01:50:38;5.60;;;1.70;;
72590;SDS011;60625;51.212;5.952;2022-10-16T01:55:43;3.90;;;1.30;;
72590;SDS011;60625;51.212;5.952;2022-10-16T02:00:47;8.50;;;1.80;;
72590;SDS011;60625;51.212;5.952;2022-10-16T02:05:55;6.70;;;1.50;;
72590;SDS011;60625;51.212;5.952;2022-10-16T02:10:57;3.40;;;0.90;;
72590;SDS011;60625;51.212;5.952;2022-10-16T02:15:59;4.10;;;1.40;;
72590;SDS011;60625;51.212;5.952;2022-10-16T02:21:12;4.00;;;1.10;;
72590;SDS011;60625;51.212;5.952;2022-10-16T02:26:25;7.00;;;1.10;;
72590;SDS011;60625;51.212;5.952;2022-10-16T02:31:50;4.30;;;1.00;;
72590;SDS011;60625;51.212;5.952;2022-10-16T02:36:56;3.90;;;1.00;;
72590;SDS011;60625;51.212;5.952;2022-10-16T02:41:58;4.10;;;1.20;;
72590;SDS011;60625;51.212;5.952;2022-10-16T02:46:59;2.30;;;0.80;;
72590;SDS011;60625;51.212;5.952;2022-10-16T02:51:59;4.20;;;1.20;;
72590;SDS011;60625;51.212;5.952;2022-10-16T02:57:00;3.80;;;1.00;;
72590;SDS011;60625;51.212;5.952;2022-10-16T03:02:00;4.50;;;0.90;;
72590;SDS011;60625;51.212;5.952;2022-10-16T03:07:01;3.80;;;0.90;;
72590;SDS011;60625;51.212;5.952;2022-10-16T03:12:02;6.10;;;1.10;;
72590;SDS011;60625;51.212;5.952;2022-10-16T03:17:02;2.90;;;0.80;;
72590;SDS011;60625;51.212;5.952;2022-10-16T03:22:03;5.40;;;0.80;;
72590;SDS011;60625;51.212;5.952;2022-10-16T03:27:04;4.50;;;1.00;;
72590;SDS011;60625;51.212;5.952;2022-10-16T03:32:04;4.00;;;0.80;;
72590;SDS011;60625;51.212;5.952;2022-10-16T03:37:05;3.50;;;1.00;;
72590;SDS011;60625;51.212;5.952;2022-10-16T03:42:05;4.30;;;1.00;;
72590;SDS011;60625;51.212;5.952;2022-10-16T03:47:05;3.40;;;1.20;;
72590;SDS011;60625;51.212;5.952;2022-10-16T03:52:06;3.70;;;0.90;;
72590;SDS011;60625;51.212;5.952;2022-10-16T03:57:07;3.90;;;1.00;;
72590;SDS011;60625;51.212;5.952;2022-10-16T04:02:07;3.00;;;0.90;;
72590;SDS011;60625;51.212;5.952;2022-10-16T04:07:08;3.60;;;0.90;;
72590;SDS011;60625;51.212;5.952;2022-10-16T04:12:08;7.40;;;1.40;;
72590;SDS011;60625;51.212;5.952;2022-10-16T04:17:09;5.00;;;0.80;;
72590;SDS011;60625;51.212;5.952;2022-10-16T04:22:09;4.80;;;0.90;;
72590;SDS011;60625;51.212;5.952;2022-10-16T04:27:10;5.20;;;1.00;;
72590;SDS011;60625;51.212;5.952;2022-10-16T04:32:10;3.40;;;1.10;;
72590;SDS011;60625;51.212;5.952;2022-10-16T04:37:11;4.90;;;1.20;;
72590;SDS011;60625;51.212;5.952;2022-10-16T04:42:11;6.70;;;1.30;;
72590;SDS011;60625;51.212;5.952;2022-10-16T04:47:11;3.20;;;1.00;;
72590;SDS011;60625;51.212;5.952;2022-10-16T04:52:13;3.10;;;1.00;;
72590;SDS011;60625;51.212;5.952;2022-10-16T04:57:13;4.80;;;1.40;;
72590;SDS011;60625;51.212;5.952;2022-10-16T05:02:14;4.60;;;1.40;;
72590;SDS011;60625;51.212;5.952;2022-10-16T05:07:14;3.70;;;1.10;;
72590;SDS011;60625;51.212;5.952;2022-10-16T05:12:15;4.50;;;1.00;;
72590;SDS011;60625;51.212;5.952;2022-10-16T05:17:15;4.40;;;0.90;;
72590;SDS011;60625;51.212;5.952;2022-10-16T05:22:15;7.10;;;1.50;;
72590;SDS011;60625;51.212;5.952;2022-10-16T05:27:16;6.30;;;1.30;;
72590;SDS011;60625;51.212;5.952;2022-10-16T05:32:20;4.90;;;1.40;;
72590;SDS011;60625;51.212;5.952;2022-10-16T05:37:20;5.90;;;1.30;;
72590;SDS011;60625;51.212;5.952;2022-10-16T05:42:20;6.00;;;1.70;;
72590;SDS011;60625;51.212;5.952;2022-10-16T05:47:21;5.90;;;1.50;;
72590;SDS011;60625;51.212;5.952;2022-10-16T05:52:21;4.90;;;1.80;;
72590;SDS011;60625;51.212;5.952;2022-10-16T05:57:22;8.00;;;2.10;;
72590;SDS011;60625;51.212;5.952;2022-10-16T06:02:22;3.60;;;1.60;;
72590;SDS011;60625;51.212;5.952;2022-10-16T06:07:23;6.40;;;1.60;;
72590;SDS011;60625;51.212;5.952;2022-10-16T06:12:24;5.00;;;1.90;;
72590;SDS011;60625;51.212;5.952;2022-10-16T06:17:24;4.20;;;1.80;;
72590;SDS011;60625;51.212;5.952;2022-10-16T06:22:24;6.30;;;2.40;;
72590;SDS011;60625;51.212;5.952;2022-10-16T06:27:25;4.60;;;2.10;;
72590;SDS011;60625;51.212;5.952;2022-10-16T06:32:27;5.70;;;2.10;;
72590;SDS011;60625;51.212;5.952;2022-10-16T06:37:27;4.80;;;1.60;;
72590;SDS011;60625;51.212;5.952;2022-10-16T06:42:28;4.60;;;2.00;;
72590;SDS011;60625;51.212;5.952;2022-10-16T06:47:28;7.40;;;2.10;;
72590;SDS011;60625;51.212;5.952;2022-10-16T06:52:29;5.50;;;2.30;;
72590;SDS011;60625;51.212;5.952;2022-10-16T06:57:29;4.40;;;1.50;;
72590;SDS011;60625;51.212;5.952;2022-10-16T07:02:30;9.50;;;2.60;;
72590;SDS011;60625;51.212;5.952;2022-10-16T07:07:31;6.80;;;2.40;;
72590;SDS011;60625;51.212;5.952;2022-10-16T07:12:31;4.40;;;2.10;;
72590;SDS011;60625;51.212;5.952;2022-10-16T07:17:32;4.60;;;1.70;;
72590;SDS011;60625;51.212;5.952;2022-10-16T07:22:33;6.60;;;2.30;;
72590;SDS011;60625;51.212;5.952;2022-10-16T07:27:34;7.60;;;3.10;;
72590;SDS011;60625;51.212;5.952;2022-10-16T07:32:35;5.90;;;2.40;;
72590;SDS011;60625;51.212;5.952;2022-10-16T07:37:35;4.90;;;1.80;;
72590;SDS011;60625;51.212;5.952;2022-10-16T07:42:35;6.30;;;2.10;;
72590;SDS011;60625;51.212;5.952;2022-10-16T07:47:36;10.10;;;2.20;;
72590;SDS011;60625;51.212;5.952;2022-10-16T07:52:36;4.80;;;2.30;;
72590;SDS011;60625;51.212;5.952;2022-10-16T07:57:37;4.60;;;2.10;;
72590;SDS011;60625;51.212;5.952;2022-10-16T08:02:37;7.80;;;2.30;;
72590;SDS011;60625;51.212;5.952;2022-10-16T08:07:37;4.50;;;1.70;;
72590;SDS011;60625;51.212;5.952;2022-10-16T08:12:38;5.50;;;2.20;;
72590;SDS011;60625;51.212;5.952;2022-10-16T08:17:38;5.30;;;1.50;;
72590;SDS011;60625;51.212;5.952;2022-10-16T08:22:39;6.40;;;2.00;;
72590;SDS011;60625;51.212;5.952;2022-10-16T08:27:39;7.10;;;1.90;;
72590;SDS011;60625;51.212;5.952;2022-10-16T08:32:40;9.40;;;1.80;;
72590;SDS011;60625;51.212;5.952;2022-10-16T08:37:44;5.80;;;1.50;;
72590;SDS011;60625;51.212;5.952;2022-10-16T08:53:26;2.90;;;1.00;;
72590;SDS011;60625;51.212;5.952;2022-10-16T08:58:29;4.70;;;0.80;;
72590;SDS011;60625;51.212;5.952;2022-10-16T09:14:20;5.30;;;1.20;;
72590;SDS011;60625;51.212;5.952;2022-10-16T09:19:40;3.90;;;0.80;;
72590;SDS011;60625;51.212;5.952;2022-10-16T09:24:46;2.60;;;0.90;;
72590;SDS011;60625;51.212;5.952;2022-10-16T09:29:47;4.50;;;0.70;;
72590;SDS011;60625;51.212;5.952;2022-10-16T09:34:53;4.20;;;1.10;;
72590;SDS011;60625;51.212;5.952;2022-10-16T09:39:56;5.00;;;1.00;;
72590;SDS011;60625;51.212;5.952;2022-10-16T09:44:57;3.30;;;1.10;;
72590;SDS011;60625;51.212;5.952;2022-10-16T09:50:00;8.40;;;1.10;;
72590;SDS011;60625;51.212;5.952;2022-10-16T09:55:15;4.10;;;0.80;;
72590;SDS011;60625;51.212;5.952;2022-10-16T10:00:19;7.70;;;1.10;;
72590;SDS011;60625;51.212;5.952;2022-10-16T10:05:28;2.90;;;0.50;;
72590;SDS011;60625;51.212;5.952;2022-10-16T10:10:31;4.60;;;0.70;;
72590;SDS011;60625;51.212;5.952;2022-10-16T10:15:34;3.40;;;0.60;;
72590;SDS011;60625;51.212;5.952;2022-10-16T10:20:41;4.90;;;0.80;;
72590;SDS011;60625;51.212;5.952;2022-10-16T10:26:00;6.00;;;1.20;;
72590;SDS011;60625;51.212;5.952;2022-10-16T10:31:12;4.00;;;0.70;;
72590;SDS011;60625;51.212;5.952;2022-10-16T10:46:35;5.70;;;0.90;;
72590;SDS011;60625;51.212;5.952;2022-10-16T10:57:33;2.60;;;0.60;;
72590;SDS011;60625;51.212;5.952;2022-10-16T11:02:41;8.20;;;1.50;;
72590;SDS011;60625;51.212;5.952;2022-10-16T11:08:18;10.10;;;0.90;;
72590;SDS011;60625;51.212;5.952;2022-10-16T11:18:59;4.20;;;0.80;;
72590;SDS011;60625;51.212;5.952;2022-10-16T11:24:16;3.60;;;0.90;;
72590;SDS011;60625;51.212;5.952;2022-10-16T11:29:27;3.60;;;0.80;;
72590;SDS011;60625;51.212;5.952;2022-10-16T11:34:41;4.80;;;0.70;;
72590;SDS011;60625;51.212;5.952;2022-10-16T11:39:45;4.20;;;0.60;;
72590;SDS011;60625;51.212;5.952;2022-10-16T11:55:54;5.00;;;0.50;;
72590;SDS011;60625;51.212;5.952;2022-10-16T12:11:38;4.20;;;0.90;;
72590;SDS011;60625;51.212;5.952;2022-10-16T12:17:22;4.40;;;1.20;;
72590;SDS011;60625;51.212;5.952;2022-10-16T12:22:28;3.40;;;0.80;;
72590;SDS011;60625;51.212;5.952;2022-10-16T12:27:31;2.50;;;0.70;;
72590;SDS011;60625;51.212;5.952;2022-10-16T12:32:37;3.90;;;0.90;;
72590;SDS011;60625;51.212;5.952;2022-10-16T12:37:41;3.00;;;0.90;;
72590;SDS011;60625;51.212;5.952;2022-10-16T12:42:43;2.60;;;0.60;;
72590;SDS011;60625;51.212;5.952;2022-10-16T12:47:50;5.60;;;1.00;;
72590;SDS011;60625;51.212;5.952;2022-10-16T12:52:52;4.40;;;1.00;;
72590;SDS011;60625;51.212;5.952;2022-10-16T12:58:13;4.20;;;0.60;;
72590;SDS011;60625;51.212;5.952;2022-10-16T13:03:46;3.30;;;0.70;;
72590;SDS011;60625;51.212;5.952;2022-10-16T13:09:26;5.90;;;1.10;;
72590;SDS011;60625;51.212;5.952;2022-10-16T13:14:58;3.60;;;0.90;;
72590;SDS011;60625;51.212;5.952;2022-10-16T13:25:47;4.20;;;0.80;;
72590;SDS011;60625;51.212;5.952;2022-10-16T13:30:55;3.30;;;0.70;;
72590;SDS011;60625;51.212;5.952;2022-10-16T13:35:58;3.80;;;0.80;;
72590;SDS011;60625;51.212;5.952;2022-10-16T13:41:03;3.00;;;0.60;;
72590;SDS011;60625;51.212;5.952;2022-10-16T13:46:10;6.10;;;0.70;;
72590;SDS011;60625;51.212;5.952;2022-10-16T13:51:17;2.10;;;0.60;;
72590;SDS011;60625;51.212;5.952;2022-10-16T13:56:20;3.00;;;0.80;;
72590;SDS011;60625;51.212;5.952;2022-10-16T14:01:25;4.00;;;0.70;;
72590;SDS011;60625;51.212;5.952;2022-10-16T14:06:28;3.70;;;0.80;;
72590;SDS011;60625;51.212;5.952;2022-10-16T14:11:29;3.50;;;0.50;;
72590;SDS011;60625;51.212;5.952;2022-10-16T14:16:30;1.50;;;0.40;;
72590;SDS011;60625;51.212;5.952;2022-10-16T14:21:33;4.00;;;0.90;;
72590;SDS011;60625;51.212;5.952;2022-10-16T14:26:41;2.60;;;0.60;;
72590;SDS011;60625;51.212;5.952;2022-10-16T14:31:54;3.20;;;0.60;;
72590;SDS011;60625;51.212;5.952;2022-10-16T14:36:55;3.50;;;1.20;;
72590;SDS011;60625;51.212;5.952;2022-10-16T14:41:58;3.40;;;0.70;;
72590;SDS011;60625;51.212;5.952;2022-10-16T14:47:08;5.30;;;0.90;;
72590;SDS011;60625;51.212;5.952;2022-10-16T14:52:11;3.80;;;0.80;;
72590;SDS011;60625;51.212;5.952;2022-10-16T14:57:17;3.40;;;0.70;;
72590;SDS011;60625;51.212;5.952;2022-10-16T15:02:31;6.70;;;0.70;;
72590;SDS011;60625;51.212;5.952;2022-10-16T15:07:34;3.40;;;0.60;;
72590;SDS011;60625;51.212;5.952;2022-10-16T15:12:35;4.50;;;0.70;;
72590;SDS011;60625;51.212;5.952;2022-10-16T15:17:35;5.70;;;0.80;;
72590;SDS011;60625;51.212;5.952;2022-10-16T15:22:36;6.80;;;0.80;;
72590;SDS011;60625;51.212;5.952;2022-10-16T15:27:36;3.20;;;0.60;;
72590;SDS011;60625;51.212;5.952;2022-10-16T15:32:40;2.90;;;0.70;;
72590;SDS011;60625;51.212;5.952;2022-10-16T15:37:40;6.90;;;1.00;;
72590;SDS011;60625;51.212;5.952;2022-10-16T15:42:41;5.50;;;0.90;;
72590;SDS011;60625;51.212;5.952;2022-10-16T15:47:42;3.60;;;0.70;;
72590;SDS011;60625;51.212;5.952;2022-10-16T15:52:43;4.30;;;0.60;;
72590;SDS011;60625;51.212;5.952;2022-10-16T15:57:45;5.40;;;0.80;;
72590;SDS011;60625;51.212;5.952;2022-10-16T16:02:50;7.90;;;0.90;;
72590;SDS011;60625;51.212;5.952;2022-10-16T16:07:53;4.20;;;0.80;;
72590;SDS011;60625;51.212;5.952;2022-10-16T16:12:54;6.70;;;0.80;;
72590;SDS011;60625;51.212;5.952;2022-10-16T16:17:54;3.40;;;0.70;;
72590;SDS011;60625;51.212;5.952;2022-10-16T16:22:54;6.60;;;1.30;;
72590;SDS011;60625;51.212;5.952;2022-10-16T16:27:55;4.40;;;1.20;;
72590;SDS011;60625;51.212;5.952;2022-10-16T16:32:55;6.50;;;1.70;;
72590;SDS011;60625;51.212;5.952;2022-10-16T16:37:56;8.70;;;3.10;;
72590;SDS011;60625;51.212;5.952;2022-10-16T16:42:57;13.10;;;3.30;;
72590;SDS011;60625;51.212;5.952;2022-10-16T16:47:57;14.70;;;5.40;;
72590;SDS011;60625;51.212;5.952;2022-10-16T16:52:58;19.30;;;6.50;;
72590;SDS011;60625;51.212;5.952;2022-10-16T16:57:58;10.10;;;4.50;;
72590;SDS011;60625;51.212;5.952;2022-10-16T17:02:58;11.30;;;4.00;;
72590;SDS011;60625;51.212;5.952;2022-10-16T17:07:59;7.30;;;2.00;;
72590;SDS011;60625;51.212;5.952;2022-10-16T17:13:00;6.60;;;2.60;;
72590;SDS011;60625;51.212;5.952;2022-10-16T17:18:00;8.20;;;1.80;;
72590;SDS011;60625;51.212;5.952;2022-10-16T17:23:01;6.90;;;1.40;;
72590;SDS011;60625;51.212;5.952;2022-10-16T17:28:02;8.10;;;1.10;;
72590;SDS011;60625;51.212;5.952;2022-10-16T17:33:04;7.90;;;1.50;;
72590;SDS011;60625;51.212;5.952;2022-10-16T17:38:05;10.00;;;1.60;;
72590;SDS011;60625;51.212;5.952;2022-10-16T17:43:06;7.90;;;2.10;;
72590;SDS011;60625;51.212;5.952;2022-10-16T17:48:07;9.60;;;2.00;;
72590;SDS011;60625;51.212;5.952;2022-10-16T17:53:08;6.90;;;1.50;;
72590;SDS011;60625;51.212;5.952;2022-10-16T17:58:08;7.30;;;1.70;;
72590;SDS011;60625;51.212;5.952;2022-10-16T18:03:09;7.00;;;1.70;;
72590;SDS011;60625;51.212;5.952;2022-10-16T18:08:10;9.20;;;1.90;;
72590;SDS011;60625;51.212;5.952;2022-10-16T18:13:10;6.70;;;1.90;;
72590;SDS011;60625;51.212;5.952;2022-10-16T18:18:10;6.00;;;1.40;;
72590;SDS011;60625;51.212;5.952;2022-10-16T18:23:11;5.40;;;1.60;;
72590;SDS011;60625;51.212;5.952;2022-10-16T18:28:12;5.80;;;2.20;;
72590;SDS011;60625;51.212;5.952;2022-10-16T18:33:13;5.80;;;1.60;;
72590;SDS011;60625;51.212;5.952;2022-10-16T18:38:13;7.10;;;1.70;;
72590;SDS011;60625;51.212;5.952;2022-10-16T18:43:14;4.10;;;1.50;;
72590;SDS011;60625;51.212;5.952;2022-10-16T18:48:14;6.60;;;1.60;;
72590;SDS011;60625;51.212;5.952;2022-10-16T18:53:15;5.00;;;1.80;;
72590;SDS011;60625;51.212;5.952;2022-10-16T18:58:15;8.80;;;1.90;;
72590;SDS011;60625;51.212;5.952;2022-10-16T19:03:16;7.00;;;2.00;;
72590;SDS011;60625;51.212;5.952;2022-10-16T19:08:17;5.80;;;1.50;;
72590;SDS011;60625;51.212;5.952;2022-10-16T19:13:18;7.00;;;2.10;;
72590;SDS011;60625;51.212;5.952;2022-10-16T19:18:18;5.70;;;2.20;;
72590;SDS011;60625;51.212;5.952;2022-10-16T19:23:20;9.30;;;2.00;;
72590;SDS011;60625;51.212;5.952;2022-10-16T19:28:21;4.90;;;2.20;;
72590;SDS011;60625;51.212;5.952;2022-10-16T19:33:21;6.30;;;1.70;;
72590;SDS011;60625;51.212;5.952;2022-10-16T19:38:22;7.00;;;2.20;;
72590;SDS011;60625;51.212;5.952;2022-10-16T19:43:23;7.10;;;2.00;;
72590;SDS011;60625;51.212;5.952;2022-10-16T19:48:23;5.70;;;1.90;;
72590;SDS011;60625;51.212;5.952;2022-10-16T19:53:25;6.90;;;2.30;;
72590;SDS011;60625;51.212;5.952;2022-10-16T19:58:27;8.20;;;2.20;;
72590;SDS011;60625;51.212;5.952;2022-10-16T20:03:28;5.60;;;2.50;;
72590;SDS011;60625;51.212;5.952;2022-10-16T20:08:28;5.10;;;2.50;;
72590;SDS011;60625;51.212;5.952;2022-10-16T20:13:30;5.30;;;2.70;;
72590;SDS011;60625;51.212;5.952;2022-10-16T20:18:30;7.30;;;2.10;;
72590;SDS011;60625;51.212;5.952;2022-10-16T20:23:31;6.30;;;2.70;;
72590;SDS011;60625;51.212;5.952;2022-10-16T20:28:31;6.40;;;2.70;;
72590;SDS011;60625;51.212;5.952;2022-10-16T20:33:32;6.70;;;3.50;;
72590;SDS011;60625;51.212;5.952;2022-10-16T20:38:32;6.50;;;3.40;;
72590;SDS011;60625;51.212;5.952;2022-10-16T20:43:34;6.40;;;3.20;;
72590;SDS011;60625;51.212;5.952;2022-10-16T20:48:36;7.70;;;3.00;;
72590;SDS011;60625;51.212;5.952;2022-10-16T20:53:40;9.80;;;3.30;;
72590;SDS011;60625;51.212;5.952;2022-10-16T20:58:42;9.80;;;3.60;;
72590;SDS011;60625;51.212;5.952;2022-10-16T21:03:45;7.40;;;3.50;;
72590;SDS011;60625;51.212;5.952;2022-10-16T21:08:52;6.70;;;3.40;;
72590;SDS011;60625;51.212;5.952;2022-10-16T21:13:55;9.50;;;3.30;;
72590;SDS011;60625;51.212;5.952;2022-10-16T21:18:59;8.20;;;3.40;;
72590;SDS011;60625;51.212;5.952;2022-10-16T21:24:00;9.20;;;3.70;;
72590;SDS011;60625;51.212;5.952;2022-10-16T21:29:04;10.90;;;4.40;;
72590;SDS011;60625;51.212;5.952;2022-10-16T21:34:05;8.40;;;3.80;;
72590;SDS011;60625;51.212;5.952;2022-10-16T21:39:09;10.60;;;4.80;;
72590;SDS011;60625;51.212;5.952;2022-10-16T21:44:12;11.50;;;3.50;;
72590;SDS011;60625;51.212;5.952;2022-10-16T21:49:15;10.40;;;3.80;;
72590;SDS011;60625;51.212;5.952;2022-10-16T21:54:21;7.50;;;3.70;;
72590;SDS011;60625;51.212;5.952;2022-10-16T21:59:22;9.80;;;3.00;;
72590;SDS011;60625;51.212;5.952;2022-10-16T22:04:23;8.30;;;2.90;;
72590;SDS011;60625;51.212;5.952;2022-10-16T22:09:23;5.50;;;3.00;;
72590;SDS011;60625;51.212;5.952;2022-10-16T22:14:24;4.70;;;2.50;;
72590;SDS011;60625;51.212;5.952;2022-10-16T22:19:24;5.40;;;2.70;;
72590;SDS011;60625;51.212;5.952;2022-10-16T22:24:25;5.00;;;2.80;;
72590;SDS011;60625;51.212;5.952;2022-10-16T22:29:25;6.00;;;2.60;;
72590;SDS011;60625;51.212;5.952;2022-10-16T22:34:25;5.90;;;2.60;;
72590;SDS011;60625;51.212;5.952;2022-10-16T22:39:28;5.10;;;2.60;;
72590;SDS011;60625;51.212;5.952;2022-10-16T22:44:29;6.10;;;3.30;;
72590;SDS011;60625;51.212;5.952;2022-10-16T22:49:30;5.90;;;3.10;;
72590;SDS011;60625;51.212;5.952;2022-10-16T22:54:30;5.40;;;2.80;;
72590;SDS011;60625;51.212;5.952;2022-10-16T22:59:30;5.60;;;2.60;;
72590;SDS011;60625;51.212;5.952;2022-10-16T23:04:31;7.10;;;2.60;;
72590;SDS011;60625;51.212;5.952;2022-10-16T23:09:32;6.20;;;2.70;;
72590;SDS011;60625;51.212;5.952;2022-10-16T23:14:32;9.30;;;2.70;;
72590;SDS011;60625;51.212;5.952;2022-10-16T23:19:33;5.50;;;3.00;;
72590;SDS011;60625;51.212;5.952;2022-10-16T23:24:33;5.10;;;2.70;;
72590;SDS011;60625;51.212;5.952;2022-10-16T23:29:34;6.70;;;2.60;;
72590;SDS011;60625;51.212;5.952;2022-10-16T23:34:34;5.80;;;2.70;;
72590;SDS011;60625;51.212;5.952;2022-10-16T23:39:35;5.70;;;2.70;;
72590;SDS011;60625;51.212;5.952;2022-10-16T23:44:35;5.00;;;2.00;;
72590;SDS011;60625;51.212;5.952;2022-10-16T23:49:37;4.60;;;2.40;;
72590;SDS011;60625;51.212;5.952;2022-10-16T23:54:38;6.80;;;2.50;;
72590;SDS011;60625;51.212;5.952;2022-10-16T23:59:38;8.00;;;3.50;;
